sensor_id;sensor_type;location;lat;lon;timestamp;pressure;altitude;pressure_sealevel;temperature;humidity
22580;BME280;11456;47.030;15.396;2023-03-05T00:02:20;97429.44;;;2.22;73.44
22580;BME280;11456;47.030;15.396;2023-03-05T00:04:46;97431.75;;;2.01;73.99
22580;BME280;11456;47.030;15.396;2023-03-05T00:07:13;97434.94;;;2.06;74.60
22580;BME280;11456;47.030;15.396;2023-03-05T00:09:39;97438.44;;;1.94;74.76
22580;BME280;11456;47.030;15.396;2023-03-05T00:12:06;97443.03;;;1.92;74.91
22580;BME280;11456;47.030;15.396;2023-03-05T00:14:32;97439.41;;;2.06;75.20
22580;BME280;11456;47.030;15.396;2023-03-05T00:16:59;97431.22;;;1.96;75.16
22580;BME280;11456;47.030;15.396;2023-03-05T00:19:25;97431.13;;;2.10;75.49
22580;BME280;11456;47.030;15.396;2023-03-05T00:21:52;97433.97;;;2.07;75.26
22580;BME280;11456;47.030;15.396;2023-03-05T00:24:18;97435.34;;;2.00;74.98
22580;BME280;11456;47.030;15.396;2023-03-05T00:26:45;97438.31;;;1.83;75.55
22580;BME280;11456;47.030;15.396;2023-03-05T00:29:16;97434.28;;;1.90;75.56
22580;BME280;11456;47.030;15.396;2023-03-05T00:31:56;97427.16;;;1.65;76.08
22580;BME280;11456;47.030;15.396;2023-03-05T00:34:23;97419.69;;;1.57;76.95
22580;BME280;11456;47.030;15.396;2023-03-05T00:36:51;97426.06;;;1.68;76.31
22580;BME280;11456;47.030;15.396;2023-03-05T00:39:19;97424.47;;;0.99;79.21
22580;BME280;11456;47.030;15.396;2023-03-05T00:41:46;97419.50;;;1.21;80.08
22580;BME280;11456;47.030;15.396;2023-03-05T00:44:12;97425.66;;;1.22;80.01
22580;BME280;11456;47.030;15.396;2023-03-05T00:46:39;97426.31;;;1.38;79.31
22580;BME280;11456;47.030;15.396;2023-03-05T00:49:06;97422.69;;;1.26;79.13
22580;BME280;11456;47.030;15.396;2023-03-05T00:51:33;97415.84;;;1.22;79.53
22580;BME280;11456;47.030;15.396;2023-03-05T00:54:00;97418.78;;;1.32;79.04
22580;BME280;11456;47.030;15.396;2023-03-05T00:56:27;97426.28;;;1.25;78.58
22580;BME280;11456;47.030;15.396;2023-03-05T00:58:53;97412.03;;;1.13;78.89
22580;BME280;11456;47.030;15.396;2023-03-05T01:01:20;97415.75;;;1.24;78.88
22580;BME280;11456;47.030;15.396;2023-03-05T01:03:46;97409.28;;;1.15;79.23
22580;BME280;11456;47.030;15.396;2023-03-05T01:06:14;97406.97;;;1.23;78.85
22580;BME280;11456;47.030;15.396;2023-03-05T01:08:42;97412.81;;;1.28;78.55
22580;BME280;11456;47.030;15.396;2023-03-05T01:11:09;97410.56;;;1.22;78.52
22580;BME280;11456;47.030;15.396;2023-03-05T01:13:36;97408.22;;;1.17;78.46
22580;BME280;11456;47.030;15.396;2023-03-05T01:16:03;97410.31;;;1.12;79.28
22580;BME280;11456;47.030;15.396;2023-03-05T01:18:30;97403.78;;;0.77;80.33
22580;BME280;11456;47.030;15.396;2023-03-05T01:20:56;97414.44;;;0.90;80.45
22580;BME280;11456;47.030;15.396;2023-03-05T01:23:23;97414.44;;;0.90;80.75
22580;BME280;11456;47.030;15.396;2023-03-05T01:25:57;97409.13;;;1.04;80.44
22580;BME280;11456;47.030;15.396;2023-03-05T01:28:25;97409.88;;;1.06;80.09
22580;BME280;11456;47.030;15.396;2023-03-05T01:30:52;97408.44;;;1.14;79.38
22580;BME280;11456;47.030;15.396;2023-03-05T01:33:18;97407.75;;;1.11;79.04
22580;BME280;11456;47.030;15.396;2023-03-05T01:35:48;97412.66;;;1.17;79.33
22580;BME280;11456;47.030;15.396;2023-03-05T01:38:16;97414.81;;;1.25;79.55
22580;BME280;11456;47.030;15.396;2023-03-05T01:40:43;97404.66;;;1.31;79.03
22580;BME280;11456;47.030;15.396;2023-03-05T01:45:37;97414.59;;;1.15;80.78
22580;BME280;11456;47.030;15.396;2023-03-05T01:48:04;97411.03;;;1.02;81.48
22580;BME280;11456;47.030;15.396;2023-03-05T01:50:31;97410.63;;;1.08;81.69
22580;BME280;11456;47.030;15.396;2023-03-05T01:53:00;97415.75;;;0.97;81.55
22580;BME280;11456;47.030;15.396;2023-03-05T01:55:28;97411.53;;;0.94;82.07
22580;BME280;11456;47.030;15.396;2023-03-05T01:57:55;97413.88;;;0.99;82.12
22580;BME280;11456;47.030;15.396;2023-03-05T02:00:27;97400.44;;;1.02;82.30
22580;BME280;11456;47.030;15.396;2023-03-05T02:02:55;97400.47;;;0.88;83.48
22580;BME280;11456;47.030;15.396;2023-03-05T02:05:24;97410.63;;;0.81;84.45
22580;BME280;11456;47.030;15.396;2023-03-05T02:07:56;97397.34;;;0.81;84.08
22580;BME280;11456;47.030;15.396;2023-03-05T02:10:23;97400.06;;;0.94;84.20
22580;BME280;11456;47.030;15.396;2023-03-05T02:12:51;97407.72;;;0.98;82.91
22580;BME280;11456;47.030;15.396;2023-03-05T02:15:18;97403.03;;;0.89;82.63
22580;BME280;11456;47.030;15.396;2023-03-05T02:17:45;97396.69;;;0.77;82.67
22580;BME280;11456;47.030;15.396;2023-03-05T02:20:13;97398.06;;;0.70;83.03
22580;BME280;11456;47.030;15.396;2023-03-05T02:22:40;97397.19;;;0.70;82.67
22580;BME280;11456;47.030;15.396;2023-03-05T02:25:17;97396.34;;;0.69;82.89
22580;BME280;11456;47.030;15.396;2023-03-05T02:27:59;97387.47;;;0.70;82.28
22580;BME280;11456;47.030;15.396;2023-03-05T02:30:27;97393.56;;;0.44;83.99
22580;BME280;11456;47.030;15.396;2023-03-05T02:32:53;97395.59;;;0.53;83.48
22580;BME280;11456;47.030;15.396;2023-03-05T02:35:20;97399.41;;;0.49;83.54
22580;BME280;11456;47.030;15.396;2023-03-05T02:37:47;97396.00;;;0.47;83.52
22580;BME280;11456;47.030;15.396;2023-03-05T02:40:14;97385.88;;;0.39;83.23
22580;BME280;11456;47.030;15.396;2023-03-05T02:42:41;97391.13;;;0.13;85.82
22580;BME280;11456;47.030;15.396;2023-03-05T02:45:09;97395.06;;;-0.09;86.77
22580;BME280;11456;47.030;15.396;2023-03-05T02:47:36;97391.09;;;0.27;86.59
22580;BME280;11456;47.030;15.396;2023-03-05T02:50:03;97385.53;;;0.17;85.63
22580;BME280;11456;47.030;15.396;2023-03-05T02:52:30;97387.41;;;0.29;85.27
22580;BME280;11456;47.030;15.396;2023-03-05T02:54:57;97387.22;;;0.32;84.22
22580;BME280;11456;47.030;15.396;2023-03-05T02:57:23;97382.38;;;0.39;84.16
22580;BME280;11456;47.030;15.396;2023-03-05T02:59:51;97372.16;;;0.47;84.08
22580;BME280;11456;47.030;15.396;2023-03-05T03:02:17;97375.41;;;0.38;83.35
22580;BME280;11456;47.030;15.396;2023-03-05T03:04:44;97369.94;;;0.13;84.10
22580;BME280;11456;47.030;15.396;2023-03-05T03:07:11;97364.03;;;0.36;83.51
22580;BME280;11456;47.030;15.396;2023-03-05T03:09:38;97367.25;;;0.27;82.83
22580;BME280;11456;47.030;15.396;2023-03-05T03:12:05;97376.28;;;0.10;82.99
22580;BME280;11456;47.030;15.396;2023-03-05T03:14:35;97358.19;;;0.03;83.69
22580;BME280;11456;47.030;15.396;2023-03-05T03:17:05;97367.84;;;0.18;83.00
22580;BME280;11456;47.030;15.396;2023-03-05T03:19:32;97374.00;;;0.18;82.60
22580;BME280;11456;47.030;15.396;2023-03-05T03:21:58;97372.47;;;0.14;82.71
22580;BME280;11456;47.030;15.396;2023-03-05T03:24:25;97367.84;;;0.18;82.44
22580;BME280;11456;47.030;15.396;2023-03-05T03:26:51;97372.84;;;0.08;83.14
22580;BME280;11456;47.030;15.396;2023-03-05T03:29:18;97370.66;;;0.00;83.90
22580;BME280;11456;47.030;15.396;2023-03-05T03:31:44;97368.63;;;0.06;83.24
22580;BME280;11456;47.030;15.396;2023-03-05T03:34:11;97367.00;;;-0.11;83.11
22580;BME280;11456;47.030;15.396;2023-03-05T03:36:38;97372.97;;;-0.08;83.28
22580;BME280;11456;47.030;15.396;2023-03-05T03:39:05;97369.56;;;-0.10;83.13
22580;BME280;11456;47.030;15.396;2023-03-05T03:41:31;97369.72;;;-0.13;84.21
22580;BME280;11456;47.030;15.396;2023-03-05T03:43:58;97368.63;;;0.06;83.70
22580;BME280;11456;47.030;15.396;2023-03-05T03:46:25;97362.00;;;-0.02;85.08
22580;BME280;11456;47.030;15.396;2023-03-05T03:48:51;97362.56;;;0.04;84.62
22580;BME280;11456;47.030;15.396;2023-03-05T03:51:18;97355.47;;;-0.10;84.65
22580;BME280;11456;47.030;15.396;2023-03-05T03:53:44;97364.09;;;-0.07;84.68
22580;BME280;11456;47.030;15.396;2023-03-05T03:56:11;97365.97;;;-0.09;84.23
22580;BME280;11456;47.030;15.396;2023-03-05T03:58:37;97365.28;;;-0.12;84.41
22580;BME280;11456;47.030;15.396;2023-03-05T04:01:04;97350.34;;;0.01;83.84
22580;BME280;11456;47.030;15.396;2023-03-05T04:03:30;97351.97;;;-0.11;83.59
22580;BME280;11456;47.030;15.396;2023-03-05T04:05:57;97361.00;;;-0.43;84.31
22580;BME280;11456;47.030;15.396;2023-03-05T04:08:25;97355.25;;;-0.35;84.86
22580;BME280;11456;47.030;15.396;2023-03-05T04:10:54;97354.81;;;-0.28;83.97
22580;BME280;11456;47.030;15.396;2023-03-05T04:13:22;97350.84;;;-0.21;84.34
22580;BME280;11456;47.030;15.396;2023-03-05T04:15:50;97342.41;;;-0.27;83.60
22580;BME280;11456;47.030;15.396;2023-03-05T04:18:19;97336.47;;;-0.45;83.64
22580;BME280;11456;47.030;15.396;2023-03-05T04:20:45;97334.75;;;-0.46;83.71
22580;BME280;11456;47.030;15.396;2023-03-05T04:23:12;97333.41;;;-0.53;84.22
22580;BME280;11456;47.030;15.396;2023-03-05T04:25:38;97339.09;;;-0.59;85.20
22580;BME280;11456;47.030;15.396;2023-03-05T04:28:05;97327.75;;;-0.47;84.53
22580;BME280;11456;47.030;15.396;2023-03-05T04:30:31;97328.13;;;-0.53;85.00
22580;BME280;11456;47.030;15.396;2023-03-05T04:32:58;97331.50;;;-0.51;84.67
22580;BME280;11456;47.030;15.396;2023-03-05T04:35:24;97336.19;;;-0.70;84.58
22580;BME280;11456;47.030;15.396;2023-03-05T04:37:51;97324.47;;;-0.81;85.73
22580;BME280;11456;47.030;15.396;2023-03-05T04:40:18;97338.47;;;-0.78;85.53
22580;BME280;11456;47.030;15.396;2023-03-05T04:42:44;97328.31;;;-0.56;86.11
22580;BME280;11456;47.030;15.396;2023-03-05T04:45:11;97322.84;;;-0.53;85.49
22580;BME280;11456;47.030;15.396;2023-03-05T04:47:37;97328.31;;;-0.56;84.82
22580;BME280;11456;47.030;15.396;2023-03-05T04:50:04;97320.53;;;-0.73;84.73
22580;BME280;11456;47.030;15.396;2023-03-05T04:52:31;97327.69;;;-0.90;85.34
22580;BME280;11456;47.030;15.396;2023-03-05T04:54:58;97318.81;;;-0.74;86.07
22580;BME280;11456;47.030;15.396;2023-03-05T04:57:24;97323.38;;;-0.62;85.73
22580;BME280;11456;47.030;15.396;2023-03-05T04:59:51;97324.53;;;-0.52;85.05
22580;BME280;11456;47.030;15.396;2023-03-05T05:02:17;97320.81;;;-0.64;84.81
22580;BME280;11456;47.030;15.396;2023-03-05T05:04:44;97319.03;;;-0.63;84.83
22580;BME280;11456;47.030;15.396;2023-03-05T05:07:11;97319.22;;;-0.66;84.53
22580;BME280;11456;47.030;15.396;2023-03-05T05:09:38;97312.53;;;-1.02;85.20
22580;BME280;11456;47.030;15.396;2023-03-05T05:12:06;97320.66;;;-1.05;85.50
22580;BME280;11456;47.030;15.396;2023-03-05T05:14:33;97326.19;;;-0.79;86.20
22580;BME280;11456;47.030;15.396;2023-03-05T05:17:00;97327.53;;;-0.72;85.24
22580;BME280;11456;47.030;15.396;2023-03-05T05:19:30;97321.06;;;-0.83;85.22
22580;BME280;11456;47.030;15.396;2023-03-05T05:21:57;97319.94;;;-1.08;86.47
22580;BME280;11456;47.030;15.396;2023-03-05T05:24:24;97317.22;;;-1.07;86.67
22580;BME280;11456;47.030;15.396;2023-03-05T05:26:52;97318.66;;;-0.71;87.26
22580;BME280;11456;47.030;15.396;2023-03-05T05:29:19;97317.53;;;-0.67;86.49
22580;BME280;11456;47.030;15.396;2023-03-05T05:31:45;97310.69;;;-0.86;86.27
22580;BME280;11456;47.030;15.396;2023-03-05T05:34:12;97321.25;;;-0.86;86.91
22580;BME280;11456;47.030;15.396;2023-03-05T05:36:39;97318.19;;;-0.64;87.29
22580;BME280;11456;47.030;15.396;2023-03-05T05:39:05;97310.72;;;-0.57;86.12
22580;BME280;11456;47.030;15.396;2023-03-05T05:41:32;97315.03;;;-0.70;87.09
22580;BME280;11456;47.030;15.396;2023-03-05T05:43:58;97320.94;;;-0.51;86.30
22580;BME280;11456;47.030;15.396;2023-03-05T05:46:25;97315.06;;;-0.56;85.38
22580;BME280;11456;47.030;15.396;2023-03-05T05:48:51;97321.50;;;-0.60;85.54
22580;BME280;11456;47.030;15.396;2023-03-05T05:51:19;97324.06;;;-0.59;85.87
22580;BME280;11456;47.030;15.396;2023-03-05T05:53:46;97324.69;;;-0.69;86.01
22580;BME280;11456;47.030;15.396;2023-03-05T05:56:12;97329.63;;;-0.49;85.93
22580;BME280;11456;47.030;15.396;2023-03-05T05:58:39;97321.50;;;-0.32;85.25
22580;BME280;11456;47.030;15.396;2023-03-05T06:01:17;97325.88;;;-0.31;84.35
22580;BME280;11456;47.030;15.396;2023-03-05T06:03:43;97320.78;;;-0.20;84.78
22580;BME280;11456;47.030;15.396;2023-03-05T06:06:10;97323.03;;;0.00;83.78
22580;BME280;11456;47.030;15.396;2023-03-05T06:08:37;97319.81;;;0.24;83.21
22580;BME280;11456;47.030;15.396;2023-03-05T06:11:06;97321.28;;;0.28;82.74
22580;BME280;11456;47.030;15.396;2023-03-05T06:13:32;97322.28;;;0.13;82.83
22580;BME280;11456;47.030;15.396;2023-03-05T06:16:04;97324.72;;;0.30;84.08
22580;BME280;11456;47.030;15.396;2023-03-05T06:18:32;97327.03;;;0.75;82.99
22580;BME280;11456;47.030;15.396;2023-03-05T06:20:59;97328.84;;;1.02;82.40
22580;BME280;11456;47.030;15.396;2023-03-05T06:23:26;97331.03;;;0.68;82.98
22580;BME280;11456;47.030;15.396;2023-03-05T06:25:53;97329.25;;;0.69;83.82
22580;BME280;11456;47.030;15.396;2023-03-05T06:28:20;97324.97;;;0.93;84.58
22580;BME280;11456;47.030;15.396;2023-03-05T06:30:47;97327.56;;;1.07;83.18
22580;BME280;11456;47.030;15.396;2023-03-05T06:33:13;97330.97;;;1.22;82.33
22580;BME280;11456;47.030;15.396;2023-03-05T06:35:40;97324.53;;;0.87;83.85
22580;BME280;11456;47.030;15.396;2023-03-05T06:38:06;97328.06;;;1.39;83.53
22580;BME280;11456;47.030;15.396;2023-03-05T06:40:33;97323.31;;;1.57;82.04
22580;BME280;11456;47.030;15.396;2023-03-05T06:43:00;97326.91;;;1.94;80.55
22580;BME280;11456;47.030;15.396;2023-03-05T06:45:27;97321.47;;;2.08;81.20
22580;BME280;11456;47.030;15.396;2023-03-05T06:47:53;97326.31;;;2.39;80.10
22580;BME280;11456;47.030;15.396;2023-03-05T06:50:20;97324.69;;;2.50;78.92
22580;BME280;11456;47.030;15.396;2023-03-05T06:52:49;97326.19;;;2.77;79.32
22580;BME280;11456;47.030;15.396;2023-03-05T06:55:16;97326.13;;;2.90;77.15
22580;BME280;11456;47.030;15.396;2023-03-05T06:57:43;97319.25;;;3.22;74.89
22580;BME280;11456;47.030;15.396;2023-03-05T07:00:10;97328.56;;;3.17;75.74
22580;BME280;11456;47.030;15.396;2023-03-05T07:02:37;97313.03;;;3.46;75.06
22580;BME280;11456;47.030;15.396;2023-03-05T07:05:04;97323.06;;;3.77;73.77
22580;BME280;11456;47.030;15.396;2023-03-05T07:07:32;97315.19;;;4.42;71.71
22580;BME280;11456;47.030;15.396;2023-03-05T07:09:58;97318.94;;;4.51;69.52
22580;BME280;11456;47.030;15.396;2023-03-05T07:12:25;97321.00;;;4.59;69.15
22580;BME280;11456;47.030;15.396;2023-03-05T07:14:51;97307.81;;;4.35;69.11
22580;BME280;11456;47.030;15.396;2023-03-05T07:17:18;97316.41;;;5.04;67.53
22580;BME280;11456;47.030;15.396;2023-03-05T07:19:44;97312.41;;;5.30;65.70
22580;BME280;11456;47.030;15.396;2023-03-05T07:22:11;97308.09;;;5.18;66.29
22580;BME280;11456;47.030;15.396;2023-03-05T07:24:37;97312.72;;;5.69;63.67
22580;BME280;11456;47.030;15.396;2023-03-05T07:27:04;97314.03;;;5.95;62.59
22580;BME280;11456;47.030;15.396;2023-03-05T07:29:30;97308.69;;;5.95;61.37
22580;BME280;11456;47.030;15.396;2023-03-05T07:31:57;97312.94;;;5.86;64.78
22580;BME280;11456;47.030;15.396;2023-03-05T07:34:23;97312.16;;;6.96;60.29
22580;BME280;11456;47.030;15.396;2023-03-05T07:36:52;97312.19;;;7.54;57.79
22580;BME280;11456;47.030;15.396;2023-03-05T07:39:19;97304.81;;;7.17;57.37
22580;BME280;11456;47.030;15.396;2023-03-05T07:41:45;97309.34;;;7.07;57.57
22580;BME280;11456;47.030;15.396;2023-03-05T07:44:13;97308.66;;;7.24;57.49
22580;BME280;11456;47.030;15.396;2023-03-05T07:46:40;97307.22;;;7.11;56.35
22580;BME280;11456;47.030;15.396;2023-03-05T07:49:07;97307.66;;;7.06;56.69
22580;BME280;11456;47.030;15.396;2023-03-05T07:51:33;97302.38;;;6.85;57.49
22580;BME280;11456;47.030;15.396;2023-03-05T07:54:00;97301.72;;;7.12;56.74
22580;BME280;11456;47.030;15.396;2023-03-05T07:58:55;97294.81;;;7.00;56.23
22580;BME280;11456;47.030;15.396;2023-03-05T08:01:21;97288.75;;;7.37;56.87
22580;BME280;11456;47.030;15.396;2023-03-05T08:03:48;97283.63;;;7.82;55.32
22580;BME280;11456;47.030;15.396;2023-03-05T08:06:14;97288.91;;;7.64;54.39
22580;BME280;11456;47.030;15.396;2023-03-05T08:08:41;97286.22;;;7.06;56.06
22580;BME280;11456;47.030;15.396;2023-03-05T08:11:09;97276.59;;;8.64;54.15
22580;BME280;11456;47.030;15.396;2023-03-05T08:13:35;97275.75;;;8.27;52.68
22580;BME280;11456;47.030;15.396;2023-03-05T08:16:08;97273.66;;;9.03;51.82
22580;BME280;11456;47.030;15.396;2023-03-05T08:18:35;97267.53;;;8.93;52.47
22580;BME280;11456;47.030;15.396;2023-03-05T08:21:02;97274.81;;;8.55;54.09
22580;BME280;11456;47.030;15.396;2023-03-05T08:23:28;97272.00;;;8.47;53.31
22580;BME280;11456;47.030;15.396;2023-03-05T08:25:55;97269.38;;;8.28;52.00
22580;BME280;11456;47.030;15.396;2023-03-05T08:28:22;97266.91;;;8.17;53.37
22580;BME280;11456;47.030;15.396;2023-03-05T08:30:49;97259.84;;;8.98;52.87
22580;BME280;11456;47.030;15.396;2023-03-05T08:33:16;97253.25;;;8.92;52.81
22580;BME280;11456;47.030;15.396;2023-03-05T08:35:42;97259.41;;;9.02;52.81
22580;BME280;11456;47.030;15.396;2023-03-05T08:38:09;97255.22;;;9.61;51.90
22580;BME280;11456;47.030;15.396;2023-03-05T08:40:35;97254.41;;;8.90;52.41
22580;BME280;11456;47.030;15.396;2023-03-05T08:43:02;97256.44;;;8.78;52.75
22580;BME280;11456;47.030;15.396;2023-03-05T08:45:31;97255.44;;;9.68;51.11
22580;BME280;11456;47.030;15.396;2023-03-05T08:47:57;97247.88;;;10.15;51.45
22580;BME280;11456;47.030;15.396;2023-03-05T08:50:24;97249.34;;;10.35;50.16
22580;BME280;11456;47.030;15.396;2023-03-05T08:52:51;97250.78;;;10.21;49.84
22580;BME280;11456;47.030;15.396;2023-03-05T08:55:17;97251.38;;;9.63;49.49
22580;BME280;11456;47.030;15.396;2023-03-05T08:57:44;97245.69;;;8.78;51.46
22580;BME280;11456;47.030;15.396;2023-03-05T09:00:10;97245.03;;;8.94;52.00
22580;BME280;11456;47.030;15.396;2023-03-05T09:02:38;97242.34;;;8.49;53.23
22580;BME280;11456;47.030;15.396;2023-03-05T09:05:05;97244.19;;;9.46;52.67
22580;BME280;11456;47.030;15.396;2023-03-05T09:07:32;97235.13;;;8.76;52.38
22580;BME280;11456;47.030;15.396;2023-03-05T09:09:58;97237.81;;;8.76;53.21
22580;BME280;11456;47.030;15.396;2023-03-05T09:12:25;97234.72;;;9.86;51.11
22580;BME280;11456;47.030;15.396;2023-03-05T09:14:53;97228.44;;;9.51;52.00
22580;BME280;11456;47.030;15.396;2023-03-05T09:17:19;97232.56;;;9.02;50.73
22580;BME280;11456;47.030;15.396;2023-03-05T09:19:46;97224.50;;;8.30;52.65
22580;BME280;11456;47.030;15.396;2023-03-05T09:22:12;97220.56;;;9.76;50.46
22580;BME280;11456;47.030;15.396;2023-03-05T09:24:39;97220.59;;;10.43;47.83
22580;BME280;11456;47.030;15.396;2023-03-05T09:27:05;97217.09;;;10.43;49.90
22580;BME280;11456;47.030;15.396;2023-03-05T09:29:32;97224.00;;;10.45;47.51
22580;BME280;11456;47.030;15.396;2023-03-05T09:31:58;97221.44;;;10.86;47.59
22580;BME280;11456;47.030;15.396;2023-03-05T09:34:25;97217.41;;;10.98;47.53
22580;BME280;11456;47.030;15.396;2023-03-05T09:36:51;97205.34;;;11.51;46.41
22580;BME280;11456;47.030;15.396;2023-03-05T09:39:18;97202.78;;;11.01;46.05
22580;BME280;11456;47.030;15.396;2023-03-05T09:44:21;97202.31;;;11.30;45.40
22580;BME280;11456;47.030;15.396;2023-03-05T09:46:51;97199.25;;;11.24;46.09
22580;BME280;11456;47.030;15.396;2023-03-05T09:52:09;97191.03;;;10.52;48.75
22580;BME280;11456;47.030;15.396;2023-03-05T09:54:42;97191.69;;;10.45;48.38
22580;BME280;11456;47.030;15.396;2023-03-05T09:57:12;97190.47;;;11.14;47.20
22580;BME280;11456;47.030;15.396;2023-03-05T09:59:50;97186.28;;;10.45;49.34
22580;BME280;11456;47.030;15.396;2023-03-05T10:02:20;97193.63;;;10.27;48.83
22580;BME280;11456;47.030;15.396;2023-03-05T10:04:52;97185.22;;;10.80;48.83
22580;BME280;11456;47.030;15.396;2023-03-05T10:07:25;97192.84;;;11.09;47.89
22580;BME280;11456;47.030;15.396;2023-03-05T10:14:50;97164.84;;;11.91;46.96
22580;BME280;11456;47.030;15.396;2023-03-05T10:22:24;97159.16;;;12.64;44.28
22580;BME280;11456;47.030;15.396;2023-03-05T10:27:41;97157.34;;;12.18;44.96
22580;BME280;11456;47.030;15.396;2023-03-05T10:30:31;97156.31;;;12.19;44.86
22580;BME280;11456;47.030;15.396;2023-03-05T10:33:03;97154.03;;;11.91;46.32
22580;BME280;11456;47.030;15.396;2023-03-05T10:35:39;97148.38;;;12.25;44.63
22580;BME280;11456;47.030;15.396;2023-03-05T10:38:15;97139.19;;;12.73;43.42
22580;BME280;11456;47.030;15.396;2023-03-05T10:40:45;97138.16;;;12.43;44.29
22580;BME280;11456;47.030;15.396;2023-03-05T10:43:15;97141.69;;;12.44;43.32
22580;BME280;11456;47.030;15.396;2023-03-05T10:45:44;97134.47;;;13.21;41.55
22580;BME280;11456;47.030;15.396;2023-03-05T10:51:03;97123.53;;;13.52;41.14
22580;BME280;11456;47.030;15.396;2023-03-05T10:53:34;97117.09;;;12.93;40.86
22580;BME280;11456;47.030;15.396;2023-03-05T10:56:03;97105.69;;;13.05;42.34
22580;BME280;11456;47.030;15.396;2023-03-05T10:58:30;97102.59;;;13.98;39.96
22580;BME280;11456;47.030;15.396;2023-03-05T11:06:15;97091.56;;;13.85;38.98
22580;BME280;11456;47.030;15.396;2023-03-05T11:08:51;97084.09;;;14.46;37.71
22580;BME280;11456;47.030;15.396;2023-03-05T11:11:19;97078.44;;;13.82;38.57
22580;BME280;11456;47.030;15.396;2023-03-05T11:13:50;97067.50;;;13.75;37.78
22580;BME280;11456;47.030;15.396;2023-03-05T11:16:23;97062.56;;;13.79;38.18
22580;BME280;11456;47.030;15.396;2023-03-05T11:18:49;97058.84;;;14.30;36.70
22580;BME280;11456;47.030;15.396;2023-03-05T11:21:35;97057.06;;;13.87;38.03
22580;BME280;11456;47.030;15.396;2023-03-05T11:24:09;97044.53;;;13.71;38.87
22580;BME280;11456;47.030;15.396;2023-03-05T11:26:46;97050.78;;;13.86;37.08
22580;BME280;11456;47.030;15.396;2023-03-05T11:29:23;97040.72;;;13.80;37.97
22580;BME280;11456;47.030;15.396;2023-03-05T11:31:51;97041.25;;;13.90;37.88
22580;BME280;11456;47.030;15.396;2023-03-05T11:39:23;97026.09;;;14.25;35.94
22580;BME280;11456;47.030;15.396;2023-03-05T11:41:55;97018.03;;;13.00;37.09
22580;BME280;11456;47.030;15.396;2023-03-05T11:46:50;97022.09;;;12.58;38.61
22580;BME280;11456;47.030;15.396;2023-03-05T11:49:19;97002.53;;;12.56;38.48
22580;BME280;11456;47.030;15.396;2023-03-05T11:54:18;97008.19;;;14.10;36.32
22580;BME280;11456;47.030;15.396;2023-03-05T11:56:46;96998.09;;;14.18;35.91
22580;BME280;11456;47.030;15.396;2023-03-05T11:59:24;96999.94;;;13.82;35.72
22580;BME280;11456;47.030;15.396;2023-03-05T12:01:53;96986.28;;;14.62;36.63
22580;BME280;11456;47.030;15.396;2023-03-05T12:04:20;96985.16;;;14.35;35.75
22580;BME280;11456;47.030;15.396;2023-03-05T12:06:57;96994.47;;;14.11;36.22
22580;BME280;11456;47.030;15.396;2023-03-05T12:12:00;96974.09;;;14.15;35.81
22580;BME280;11456;47.030;15.396;2023-03-05T12:14:33;96967.53;;;14.24;36.00
22580;BME280;11456;47.030;15.396;2023-03-05T12:22:01;96958.94;;;12.97;37.23
22580;BME280;11456;47.030;15.396;2023-03-05T12:27:04;96954.78;;;13.53;35.43
22580;BME280;11456;47.030;15.396;2023-03-05T12:31:58;96940.97;;;14.13;34.64
22580;BME280;11456;47.030;15.396;2023-03-05T12:37:11;96938.56;;;13.38;36.11
22580;BME280;11456;47.030;15.396;2023-03-05T12:47:40;96916.44;;;13.64;35.38
22580;BME280;11456;47.030;15.396;2023-03-05T12:57:51;96896.81;;;13.26;35.52
22580;BME280;11456;47.030;15.396;2023-03-05T13:00:27;96907.50;;;13.05;34.96
22580;BME280;11456;47.030;15.396;2023-03-05T13:02:59;96905.16;;;12.72;36.23
22580;BME280;11456;47.030;15.396;2023-03-05T13:05:31;96898.13;;;13.30;35.10
22580;BME280;11456;47.030;15.396;2023-03-05T13:13:17;96897.06;;;12.35;35.81
22580;BME280;11456;47.030;15.396;2023-03-05T13:15:47;96898.34;;;12.76;35.73
22580;BME280;11456;47.030;15.396;2023-03-05T13:18:21;96886.66;;;12.61;36.95
22580;BME280;11456;47.030;15.396;2023-03-05T13:20:59;96890.09;;;12.93;36.16
22580;BME280;11456;47.030;15.396;2023-03-05T13:23:27;96888.84;;;12.95;34.95
22580;BME280;11456;47.030;15.396;2023-03-05T13:25:55;96895.69;;;13.50;35.14
22580;BME280;11456;47.030;15.396;2023-03-05T13:28:22;96888.00;;;12.28;35.94
22580;BME280;11456;47.030;15.396;2023-03-05T13:30:52;96892.47;;;11.28;37.21
22580;BME280;11456;47.030;15.396;2023-03-05T13:33:27;96887.06;;;12.35;35.96
22580;BME280;11456;47.030;15.396;2023-03-05T13:35:54;96882.38;;;10.83;38.43
22580;BME280;11456;47.030;15.396;2023-03-05T13:38:42;96885.13;;;10.59;39.86
22580;BME280;11456;47.030;15.396;2023-03-05T13:46:22;96861.41;;;12.17;37.04
22580;BME280;11456;47.030;15.396;2023-03-05T13:48:48;96861.56;;;12.00;36.88
22580;BME280;11456;47.030;15.396;2023-03-05T13:51:15;96859.28;;;11.89;37.17
22580;BME280;11456;47.030;15.396;2023-03-05T13:53:42;96861.56;;;12.00;37.04
22580;BME280;11456;47.030;15.396;2023-03-05T13:56:12;96858.69;;;11.79;37.11
22580;BME280;11456;47.030;15.396;2023-03-05T14:03:51;96847.56;;;12.57;36.25
22580;BME280;11456;47.030;15.396;2023-03-05T14:06:19;96854.09;;;12.77;35.89
22580;BME280;11456;47.030;15.396;2023-03-05T14:08:50;96844.69;;;13.03;36.38
22580;BME280;11456;47.030;15.396;2023-03-05T14:11:17;96845.34;;;13.34;34.91
22580;BME280;11456;47.030;15.396;2023-03-05T14:13:45;96832.44;;;13.72;34.94
22580;BME280;11456;47.030;15.396;2023-03-05T14:16:13;96839.09;;;13.04;35.90
22580;BME280;11456;47.030;15.396;2023-03-05T14:18:54;96834.59;;;13.41;34.38
22580;BME280;11456;47.030;15.396;2023-03-05T14:21:21;96832.66;;;12.91;35.69
22580;BME280;11456;47.030;15.396;2023-03-05T14:23:48;96821.59;;;14.08;33.83
22580;BME280;11456;47.030;15.396;2023-03-05T14:26:32;96830.53;;;13.51;34.40
22580;BME280;11456;47.030;15.396;2023-03-05T14:31:37;96814.84;;;13.25;35.09